Meteo

Ora Tempo Temperatura Umidità Vento Precipitazioni
06:00 nubi sparse 18.2° 63% 1.71 km/h 0 mm
09:00 nubi sparse 19.2° 59% 3.28 km/h 0 mm
12:00 nubi sparse 21.0° 56% 3.92 km/h 0 mm
15:00 poche nuvole 22.4° 53% 3.73 km/h 0 mm
18:00 poche nuvole 20.5° 65% 2.18 km/h 0 mm
21:00 cielo sereno 18.7° 73% 1.16 km/h 0 mm
Ora Tempo Temperatura Umidità Vento Precipitazioni
00:00 cielo sereno 17.2° 71% 1.79 km/h 0 mm
03:00 nubi sparse 16.5° 68% 2.17 km/h 0 mm
06:00 poche nuvole 18.3° 60% 1.83 km/h 0 mm
09:00 nubi sparse 20.9° 60% 2.67 km/h 0 mm
12:00 nubi sparse 22.5° 59% 4.17 km/h 0 mm
15:00 nubi sparse 22.3° 62% 3.46 km/h 0 mm
18:00 poche nuvole 20.6° 75% 1.34 km/h 0 mm
21:00 cielo sereno 19.0° 75% 1.54 km/h 0 mm
Ora Tempo Temperatura Umidità Vento Precipitazioni
00:00 poche nuvole 17.9° 69% 2.3 km/h 0 mm
03:00 nubi sparse 17.2° 67% 1.93 km/h 0 mm
06:00 nubi sparse 19.3° 57% 1.5 km/h 0 mm
09:00 cielo sereno 21.9° 53% 2.53 km/h 0 mm
12:00 poche nuvole 22.7° 56% 3.77 km/h 0 mm
15:00 nubi sparse 23.0° 58% 3.43 km/h 0 mm
18:00 nubi sparse 21.1° 71% 1.85 km/h 0 mm
21:00 nubi sparse 19.4° 79% 2.41 km/h 0 mm
Ora Tempo Temperatura Umidità Vento Precipitazioni
00:00 nubi sparse 18.2° 81% 2.3 km/h 0 mm
03:00 cielo coperto 17.6° 83% 2.67 km/h 0 mm
06:00 nubi sparse 19.3° 75% 2.45 km/h 0 mm
09:00 nubi sparse 22.0° 68% 4.63 km/h 0 mm
12:00 nubi sparse 22.6° 67% 4.98 km/h 0 mm
15:00 cielo sereno 22.5° 69% 4.36 km/h 0 mm
18:00 poche nuvole 21.0° 78% 3.92 km/h 0 mm
21:00 nubi sparse 18.8° 82% 3.2 km/h 0 mm
Ora Tempo Temperatura Umidità Vento Precipitazioni
00:00 nubi sparse 17.9° 82% 3.34 km/h 0 mm
03:00 poche nuvole 17.7° 78% 4.36 km/h 0 mm
06:00 nubi sparse 20.5° 66% 5.47 km/h 0 mm
09:00 cielo sereno 22.9° 70% 9.66 km/h 0 mm
12:00 cielo sereno 22.8° 76% 7.86 km/h 0 mm
15:00 nubi sparse 22.6° 78% 5.77 km/h 0 mm
18:00 nubi sparse 21.3° 87% 4.16 km/h 0 mm
21:00 nubi sparse 19.6° 89% 3.14 km/h 0 mm
Ora Tempo Temperatura Umidità Vento Precipitazioni
00:00 cielo coperto 19.5° 87% 3.45 km/h 0 mm
03:00 nubi sparse 18.3° 86% 2.68 km/h 0 mm
Venerdì 20 Maggio
Temp. max: 22.5°
Temp. min: 18.2°
Ora Tempo Temperatura Umidità Vento Precipitazioni
06:00 nubi sparse 18.2° 63% 1.71 km/h 0 mm
09:00 nubi sparse 19.2° 59% 3.28 km/h 0 mm
12:00 nubi sparse 21.0° 56% 3.92 km/h 0 mm
15:00 poche nuvole 22.4° 53% 3.73 km/h 0 mm
18:00 poche nuvole 20.5° 65% 2.18 km/h 0 mm
21:00 cielo sereno 18.7° 73% 1.16 km/h 0 mm
Sabato 21 Maggio
Temp. max: 22.5°
Temp. min: 16.5°
Ora Tempo Temperatura Umidità Vento Precipitazioni
00:00 cielo sereno 17.2° 71% 1.79 km/h 0 mm
03:00 nubi sparse 16.5° 68% 2.17 km/h 0 mm
06:00 poche nuvole 18.3° 60% 1.83 km/h 0 mm
09:00 nubi sparse 20.9° 60% 2.67 km/h 0 mm
12:00 nubi sparse 22.5° 59% 4.17 km/h 0 mm
15:00 nubi sparse 22.3° 62% 3.46 km/h 0 mm
18:00 poche nuvole 20.6° 75% 1.34 km/h 0 mm
21:00 cielo sereno 19.0° 75% 1.54 km/h 0 mm
Domenica 22 Maggio
Temp. max: 23.0°
Temp. min: 17.2°
Ora Tempo Temperatura Umidità Vento Precipitazioni
00:00 poche nuvole 17.9° 69% 2.3 km/h 0 mm
03:00 nubi sparse 17.2° 67% 1.93 km/h 0 mm
06:00 nubi sparse 19.3° 57% 1.5 km/h 0 mm
09:00 cielo sereno 21.9° 53% 2.53 km/h 0 mm
12:00 poche nuvole 22.7° 56% 3.77 km/h 0 mm
15:00 nubi sparse 23.0° 58% 3.43 km/h 0 mm
18:00 nubi sparse 21.1° 71% 1.85 km/h 0 mm
21:00 nubi sparse 19.4° 79% 2.41 km/h 0 mm
Lunedì 23 Maggio
Temp. max: 22.6°
Temp. min: 17.6°
Ora Tempo Temperatura Umidità Vento Precipitazioni
00:00 nubi sparse 18.2° 81% 2.3 km/h 0 mm
03:00 cielo coperto 17.6° 83% 2.67 km/h 0 mm
06:00 nubi sparse 19.3° 75% 2.45 km/h 0 mm
09:00 nubi sparse 22.0° 68% 4.63 km/h 0 mm
12:00 nubi sparse 22.6° 67% 4.98 km/h 0 mm
15:00 cielo sereno 22.5° 69% 4.36 km/h 0 mm
18:00 poche nuvole 21.0° 78% 3.92 km/h 0 mm
21:00 nubi sparse 18.8° 82% 3.2 km/h 0 mm
Martedì 24 Maggio
Temp. max: 22.9°
Temp. min: 17.7°
Ora Tempo Temperatura Umidità Vento Precipitazioni
00:00 nubi sparse 17.9° 82% 3.34 km/h 0 mm
03:00 poche nuvole 17.7° 78% 4.36 km/h 0 mm
06:00 nubi sparse 20.5° 66% 5.47 km/h 0 mm
09:00 cielo sereno 22.9° 70% 9.66 km/h 0 mm
12:00 cielo sereno 22.8° 76% 7.86 km/h 0 mm
15:00 nubi sparse 22.6° 78% 5.77 km/h 0 mm
18:00 nubi sparse 21.3° 87% 4.16 km/h 0 mm
21:00 nubi sparse 19.6° 89% 3.14 km/h 0 mm
Mercoledì 25 Maggio
Temp. max: 19.5°
Temp. min: 18.3°
Ora Tempo Temperatura Umidità Vento Precipitazioni
00:00 cielo coperto 19.5° 87% 3.45 km/h 0 mm
03:00 nubi sparse 18.3° 86% 2.68 km/h 0 mm

Live Cam

VUOI RICEVERE PIÚ INFORMAZIONI SUI NOSTRI SERVIZI?

Usa la form di contatti sul sito o contattaci telefonicamente